createdAt,value
2018-06-09T00:00:42.910Z,100.00
2018-06-09T00:03:11.167Z,100.00
2018-06-09T00:05:40.044Z,100.00
2018-06-09T00:08:09.296Z,100.00
2018-06-09T00:10:38.141Z,100.00
2018-06-09T00:13:07.875Z,100.00
2018-06-09T00:15:36.922Z,100.00
2018-06-09T00:18:06.060Z,100.00
2018-06-09T00:20:35.184Z,100.00
2018-06-09T00:23:04.900Z,99.80
2018-06-09T00:25:34.149Z,100.00
2018-06-09T00:28:07.474Z,98.77
2018-06-09T00:30:35.936Z,98.13
2018-06-09T00:33:04.729Z,99.04
2018-06-09T00:35:37.969Z,99.60
2018-06-09T00:38:06.701Z,99.49
2018-06-09T00:40:37.522Z,100.00
2018-06-09T00:43:08.367Z,100.00
2018-06-09T00:45:37.858Z,100.00
2018-06-09T00:48:06.799Z,100.00
2018-06-09T00:50:35.097Z,100.00
2018-06-09T00:53:03.607Z,100.00
2018-06-09T00:55:31.864Z,100.00
2018-06-09T00:58:00.059Z,100.00
2018-06-09T01:00:28.289Z,100.00
2018-06-09T01:02:56.482Z,100.00
2018-06-09T01:05:24.675Z,100.00
2018-06-09T01:07:52.804Z,100.00
2018-06-09T01:10:21.047Z,100.00
2018-06-09T01:12:49.302Z,100.00
2018-06-09T01:15:17.573Z,100.00
2018-06-09T01:17:45.699Z,100.00
2018-06-09T01:20:14.440Z,100.00
2018-06-09T01:22:42.667Z,100.00
2018-06-09T01:25:10.833Z,100.00
2018-06-09T01:27:39.009Z,100.00
2018-06-09T01:30:07.592Z,100.00
2018-06-09T01:32:35.833Z,100.00
2018-06-09T01:35:04.045Z,100.00
2018-06-09T01:37:32.283Z,100.00
2018-06-09T01:40:00.496Z,100.00
2018-06-09T01:42:28.629Z,100.00
2018-06-09T01:44:56.808Z,100.00
2018-06-09T01:47:24.969Z,100.00
2018-06-09T01:49:53.203Z,100.00
2018-06-09T01:52:21.390Z,100.00
2018-06-09T01:54:49.511Z,99.24
2018-06-09T01:57:18.218Z,100.00
2018-06-09T01:59:46.394Z,100.00
2018-06-09T02:02:14.670Z,100.00
2018-06-09T02:04:42.790Z,100.00
2018-06-09T02:07:10.966Z,100.00
2018-06-09T02:09:39.251Z,100.00
2018-06-09T02:12:07.545Z,100.00
2018-06-09T02:14:35.780Z,100.00
2018-06-09T02:17:03.969Z,100.00
2018-06-09T02:19:32.275Z,100.00
2018-06-09T02:22:00.459Z,100.00
2018-06-09T02:24:28.729Z,100.00
2018-06-09T02:26:56.939Z,100.00
2018-06-09T02:29:25.107Z,100.00
2018-06-09T02:31:53.309Z,100.00
2018-06-09T02:34:21.993Z,100.00
2018-06-09T02:36:50.256Z,100.00
2018-06-09T02:39:18.446Z,100.00
2018-06-09T02:41:52.981Z,99.93
2018-06-09T02:44:21.477Z,100.00
2018-06-09T02:46:49.617Z,99.48
2018-06-09T02:49:17.839Z,99.05
2018-06-09T02:51:49.855Z,99.71
2018-06-09T02:54:18.124Z,100.00
2018-06-09T02:56:46.354Z,100.00
2018-06-09T02:59:14.473Z,100.00
2018-06-09T03:01:42.648Z,100.00
2018-06-09T03:04:10.815Z,100.00
2018-06-09T03:06:38.937Z,100.00
2018-06-09T03:09:07.659Z,100.00
2018-06-09T03:11:35.868Z,100.00
2018-06-09T03:14:03.977Z,100.00
2018-06-09T03:16:32.195Z,100.00
2018-06-09T03:19:00.418Z,100.00
2018-06-09T03:21:28.588Z,100.00
2018-06-09T03:23:56.660Z,100.00
2018-06-09T03:26:25.382Z,100.00
2018-06-09T03:28:53.645Z,99.91
2018-06-09T03:31:21.841Z,100.00
2018-06-09T03:33:50.097Z,100.00
2018-06-09T03:36:18.329Z,99.83
2018-06-09T03:38:46.491Z,99.08
2018-06-09T03:41:14.697Z,99.86
2018-06-09T03:43:42.929Z,99.51
2018-06-09T03:46:11.066Z,100.00
2018-06-09T03:48:39.230Z,100.00
2018-06-09T03:51:07.446Z,100.00
2018-06-09T03:53:35.633Z,100.00
2018-06-09T03:56:03.874Z,100.00
2018-06-09T03:58:32.027Z,100.00
2018-06-09T04:01:00.194Z,100.00
2018-06-09T04:03:28.672Z,100.00
2018-06-09T04:05:56.874Z,98.64
2018-06-09T04:08:25.050Z,97.74
2018-06-09T04:10:53.247Z,97.53
2018-06-09T04:13:21.293Z,99.75
2018-06-09T04:15:49.673Z,99.61
2018-06-09T04:18:17.773Z,100.00
2018-06-09T04:20:46.083Z,100.00
2018-06-09T04:23:14.278Z,100.00
2018-06-09T04:25:42.502Z,98.29
2018-06-09T04:28:10.711Z,98.64
2018-06-09T04:30:38.817Z,97.82
2018-06-09T04:33:07.016Z,97.06
2018-06-09T04:35:35.194Z,97.74
2018-06-09T04:38:03.363Z,98.18
2018-06-09T04:40:32.150Z,97.34
2018-06-09T04:43:00.457Z,96.37
2018-06-09T04:45:28.609Z,96.36
2018-06-09T04:47:56.822Z,95.25
2018-06-09T04:50:25.099Z,96.07
2018-06-09T04:52:53.567Z,95.59
2018-06-09T04:55:21.759Z,96.14
2018-06-09T04:57:49.993Z,94.40
2018-06-09T05:00:18.093Z,93.95
2018-06-09T05:02:46.250Z,94.93
2018-06-09T05:05:14.561Z,93.01
2018-06-09T05:07:42.785Z,91.88
2018-06-09T05:10:11.008Z,92.15
2018-06-09T05:12:39.193Z,90.84
2018-06-09T05:15:07.489Z,90.18
2018-06-09T05:17:36.143Z,91.48
2018-06-09T05:20:04.457Z,89.36
2018-06-09T05:22:34.524Z,90.17
2018-06-09T05:25:03.094Z,90.32
2018-06-09T05:27:31.779Z,88.64
2018-06-09T05:30:00.027Z,89.25
2018-06-09T05:32:28.274Z,86.76
2018-06-09T05:34:56.419Z,88.24
2018-06-09T05:37:24.601Z,88.15
2018-06-09T05:39:52.772Z,86.91
2018-06-09T05:42:20.923Z,86.77
2018-06-09T05:44:49.082Z,85.45
2018-06-09T05:47:17.218Z,80.67
2018-06-09T05:49:45.419Z,78.34
2018-06-09T05:52:13.673Z,76.96
2018-06-09T05:54:41.819Z,79.94
2018-06-09T05:57:10.009Z,76.81
2018-06-09T05:59:38.712Z,77.94
2018-06-09T06:02:07.173Z,73.96
2018-06-09T06:04:35.484Z,77.86
2018-06-09T06:07:03.793Z,75.29
2018-06-09T06:09:31.911Z,73.31
2018-06-09T06:12:00.305Z,73.92
2018-06-09T06:14:28.618Z,72.54
2018-06-09T06:16:56.949Z,76.79
2018-06-09T06:19:25.114Z,78.10
2018-06-09T06:21:53.306Z,75.20
2018-06-09T06:24:21.442Z,70.19
2018-06-09T06:26:49.617Z,73.13
2018-06-09T06:29:17.866Z,74.01
2018-06-09T06:31:46.023Z,72.80
2018-06-09T06:34:14.186Z,74.95
2018-06-09T06:36:42.478Z,72.54
2018-06-09T06:39:10.832Z,67.42
2018-06-09T06:41:38.999Z,64.80
2018-06-09T06:44:07.154Z,64.76
2018-06-09T06:46:35.947Z,64.30
2018-06-09T06:49:04.341Z,67.22
2018-06-09T06:51:32.546Z,66.63
2018-06-09T06:54:00.874Z,64.79
2018-06-09T06:56:29.037Z,57.11
2018-06-09T06:58:57.474Z,57.62
2018-06-09T07:01:25.739Z,56.33
2018-06-09T07:03:53.985Z,57.62
2018-06-09T07:06:22.121Z,54.02
2018-06-09T07:08:50.378Z,57.71
2018-06-09T07:11:18.510Z,59.98
2018-06-09T07:13:46.703Z,58.25
2018-06-09T07:16:15.029Z,58.41
2018-06-09T07:18:43.651Z,53.63
2018-06-09T07:21:11.807Z,52.30
2018-06-09T07:23:40.052Z,51.13
2018-06-09T07:26:08.222Z,57.41
2018-06-09T07:28:36.432Z,57.82
2018-06-09T07:31:04.633Z,61.03
2018-06-09T07:33:32.846Z,63.73
2018-06-09T07:36:01.114Z,65.92
2018-06-09T07:38:29.322Z,68.92
2018-06-09T07:40:57.417Z,69.22
2018-06-09T07:43:25.635Z,67.69
2018-06-09T07:45:57.247Z,66.66
2018-06-09T07:48:25.421Z,69.03
2018-06-09T07:50:53.595Z,68.08
2018-06-09T07:53:21.772Z,67.87
2018-06-09T07:55:50.023Z,68.63
2018-06-09T07:58:18.122Z,67.25
2018-06-09T08:00:46.674Z,67.45
2018-06-09T08:03:15.084Z,67.00
2018-06-09T08:05:43.316Z,69.13
2018-06-09T08:08:11.407Z,66.74
2018-06-09T08:10:39.672Z,70.40
2018-06-09T08:13:07.857Z,69.27
2018-06-09T08:15:36.022Z,65.90
2018-06-09T08:18:04.542Z,67.52
2018-06-09T08:20:32.799Z,66.05
2018-06-09T08:23:00.974Z,67.78
2018-06-09T08:25:29.233Z,67.44
2018-06-09T08:27:57.445Z,70.52
2018-06-09T08:30:25.947Z,67.35
2018-06-09T08:32:54.055Z,68.19
2018-06-09T08:35:22.242Z,64.77
2018-06-09T08:37:50.943Z,64.88
2018-06-09T08:40:19.195Z,64.62
2018-06-09T08:42:47.512Z,67.11
2018-06-09T08:45:15.798Z,63.51
2018-06-09T08:47:44.009Z,64.83
2018-06-09T08:50:12.354Z,62.75
2018-06-09T08:52:40.439Z,63.56
2018-06-09T08:55:08.730Z,63.98
2018-06-09T08:57:36.928Z,62.10
2018-06-09T09:00:05.133Z,62.69
2018-06-09T09:02:33.486Z,63.36
2018-06-09T09:05:01.902Z,63.57
2018-06-09T09:07:30.170Z,64.25
2018-06-09T09:09:58.306Z,62.80
2018-06-09T09:12:26.571Z,60.38
2018-06-09T09:14:54.841Z,60.92
2018-06-09T09:17:23.154Z,63.11
2018-06-09T09:19:51.326Z,63.46
2018-06-09T09:22:19.538Z,61.70
2018-06-09T09:24:47.856Z,60.96
2018-06-09T09:27:16.000Z,63.21
2018-06-09T09:29:44.339Z,60.04
2018-06-09T09:32:12.550Z,61.38
2018-06-09T09:34:40.650Z,58.68
2018-06-09T09:37:08.911Z,60.07
2018-06-09T09:39:37.078Z,59.95
2018-06-09T09:42:05.270Z,59.98
2018-06-09T09:44:33.449Z,59.60
2018-06-09T09:47:01.657Z,59.80
2018-06-09T09:49:30.075Z,58.37
2018-06-09T09:51:58.614Z,60.03
2018-06-09T09:54:26.864Z,59.53
2018-06-09T09:56:54.995Z,60.31
2018-06-09T09:59:23.185Z,57.12
2018-06-09T10:01:51.471Z,56.35
2018-06-09T10:04:19.580Z,58.39
2018-06-09T10:06:47.775Z,57.08
2018-06-09T10:09:15.990Z,57.82
2018-06-09T10:11:44.176Z,57.26
2018-06-09T10:14:12.350Z,58.03
2018-06-09T10:16:40.513Z,58.31
2018-06-09T10:19:08.624Z,57.15
2018-06-09T10:21:37.006Z,57.27
2018-06-09T10:24:05.114Z,54.92
2018-06-09T10:26:33.585Z,54.33
2018-06-09T10:29:02.179Z,53.50
2018-06-09T10:31:30.438Z,53.29
2018-06-09T10:33:58.600Z,55.30
2018-06-09T10:36:26.804Z,54.68
2018-06-09T10:38:55.000Z,56.26
2018-06-09T10:41:23.149Z,53.72
2018-06-09T10:43:52.107Z,53.77
2018-06-09T10:46:20.396Z,53.54
2018-06-09T10:48:49.786Z,53.19
2018-06-09T10:51:17.983Z,53.98
2018-06-09T10:53:46.125Z,52.42
2018-06-09T10:56:14.312Z,54.43
2018-06-09T10:58:42.485Z,53.63
2018-06-09T11:01:10.751Z,54.55
2018-06-09T11:03:38.965Z,54.40
2018-06-09T11:06:07.154Z,54.41
2018-06-09T11:08:42.133Z,54.14
2018-06-09T11:11:10.240Z,54.41
2018-06-09T11:13:38.475Z,53.29
2018-06-09T11:16:06.688Z,51.93
2018-06-09T11:18:34.867Z,51.83
2018-06-09T11:21:03.442Z,54.02
2018-06-09T11:23:31.618Z,52.30
2018-06-09T11:25:59.967Z,52.28
2018-06-09T11:28:28.131Z,55.02
2018-06-09T11:30:56.309Z,53.04
2018-06-09T11:33:24.586Z,54.04
2018-06-09T11:35:52.757Z,51.40
2018-06-09T11:38:20.938Z,52.47
2018-06-09T11:40:49.135Z,51.25
2018-06-09T11:43:17.400Z,52.21
2018-06-09T11:45:45.653Z,50.56
2018-06-09T11:48:13.850Z,51.14
2018-06-09T11:50:42.066Z,51.62
2018-06-09T11:53:10.141Z,52.28
2018-06-09T11:55:38.331Z,52.70
2018-06-09T11:58:06.726Z,52.23
2018-06-09T12:00:34.980Z,49.59
2018-06-09T12:03:03.195Z,50.86
2018-06-09T12:05:33.046Z,51.63
2018-06-09T12:08:05.883Z,50.45
2018-06-09T12:10:35.105Z,49.50
2018-06-09T12:13:03.991Z,50.43
2018-06-09T12:15:32.546Z,51.17
2018-06-09T12:18:00.786Z,50.79
2018-06-09T12:20:29.023Z,50.20
2018-06-09T12:22:57.197Z,50.86
2018-06-09T12:25:25.538Z,49.83
2018-06-09T12:27:53.790Z,48.88
2018-06-09T12:30:22.063Z,50.20
2018-06-09T12:32:50.283Z,50.82
2018-06-09T12:35:18.433Z,49.56
2018-06-09T12:37:46.771Z,49.13
2018-06-09T12:40:14.776Z,49.88
2018-06-09T12:42:43.032Z,50.20
2018-06-09T12:45:11.638Z,48.19
2018-06-09T12:47:39.980Z,49.58
2018-06-09T12:50:08.164Z,49.05
2018-06-09T12:52:36.344Z,47.37
2018-06-09T12:55:04.590Z,50.84
2018-06-09T12:57:32.832Z,48.05
2018-06-09T13:00:01.009Z,47.96
2018-06-09T13:02:29.321Z,47.04
2018-06-09T13:04:57.629Z,48.74
2018-06-09T13:07:25.797Z,46.69
2018-06-09T13:09:54.046Z,47.64
2018-06-09T13:12:22.218Z,45.92
2018-06-09T13:14:50.439Z,45.20
2018-06-09T13:17:18.684Z,44.12
2018-06-09T13:19:46.962Z,45.81
2018-06-09T13:22:15.710Z,45.01
2018-06-09T13:24:43.981Z,43.73
2018-06-09T13:27:12.226Z,44.24
2018-06-09T13:29:41.352Z,43.71
2018-06-09T13:32:09.642Z,42.82
2018-06-09T13:34:37.841Z,44.78
2018-06-09T13:37:06.022Z,41.80
2018-06-09T13:39:34.189Z,44.58
2018-06-09T13:42:02.459Z,45.28
2018-06-09T13:44:30.690Z,44.45
2018-06-09T13:46:59.883Z,46.60
2018-06-09T13:49:28.235Z,45.38
2018-06-09T13:51:56.460Z,46.48
2018-06-09T13:54:24.638Z,47.75
2018-06-09T13:56:52.718Z,45.20
2018-06-09T13:59:20.826Z,46.64
2018-06-09T14:01:48.948Z,47.06
2018-06-09T14:04:17.580Z,45.72
2018-06-09T14:06:45.757Z,47.88
2018-06-09T14:09:14.022Z,48.28
2018-06-09T14:11:42.291Z,47.31
2018-06-09T14:14:10.434Z,47.26
2018-06-09T14:16:38.697Z,44.47
2018-06-09T14:19:06.894Z,46.09
2018-06-09T14:21:35.018Z,43.44
2018-06-09T14:24:03.299Z,42.18
2018-06-09T14:26:31.498Z,41.86
2018-06-09T14:28:59.653Z,42.37
2018-06-09T14:31:28.953Z,43.77
2018-06-09T14:33:57.269Z,44.48
2018-06-09T14:36:25.988Z,44.81
2018-06-09T14:38:54.619Z,44.42
2018-06-09T14:41:23.310Z,43.77
2018-06-09T14:43:52.123Z,44.80
2018-06-09T14:46:20.973Z,42.97
2018-06-09T14:48:49.297Z,41.74
2018-06-09T14:51:17.523Z,41.67
2018-06-09T14:53:45.832Z,42.34
2018-06-09T14:56:14.207Z,44.80
2018-06-09T14:58:42.563Z,44.81
2018-06-09T15:01:10.866Z,45.33
2018-06-09T15:03:39.195Z,45.32
2018-06-09T15:06:07.464Z,45.17
2018-06-09T15:08:35.915Z,44.60
2018-06-09T15:11:04.299Z,47.25
2018-06-09T15:13:32.647Z,46.70
2018-06-09T15:16:00.946Z,50.29
2018-06-09T15:18:29.332Z,50.71
2018-06-09T15:20:58.237Z,51.95
2018-06-09T15:23:27.090Z,52.28
2018-06-09T15:25:55.456Z,55.88
2018-06-09T15:28:24.009Z,54.42
2018-06-09T15:30:52.130Z,54.38
2018-06-09T15:33:20.253Z,55.68
2018-06-09T15:35:48.533Z,53.62
2018-06-09T15:38:21.083Z,55.82
2018-06-09T15:40:49.467Z,56.50
2018-06-09T15:43:17.791Z,58.50
2018-06-09T15:45:46.190Z,57.81
2018-06-09T15:48:14.400Z,58.49
2018-06-09T15:50:42.674Z,57.43
2018-06-09T15:53:10.938Z,58.47
2018-06-09T15:55:39.130Z,58.15
2018-06-09T15:58:07.367Z,59.35
2018-06-09T16:00:35.626Z,58.81
2018-06-09T16:03:03.891Z,59.71
2018-06-09T16:05:32.734Z,61.77
2018-06-09T16:08:01.056Z,63.15
2018-06-09T16:10:29.995Z,63.53
2018-06-09T16:13:02.935Z,62.98
2018-06-09T16:15:31.709Z,63.10
2018-06-09T16:17:59.934Z,64.61
2018-06-09T16:20:28.828Z,63.12
2018-06-09T16:22:56.921Z,64.04
2018-06-09T16:25:25.075Z,63.90
2018-06-09T16:27:53.242Z,63.57
2018-06-09T16:30:21.648Z,64.94
2018-06-09T16:32:49.844Z,64.49
2018-06-09T16:35:18.075Z,64.67
2018-06-09T16:37:46.301Z,65.14
2018-06-09T16:40:14.626Z,65.75
2018-06-09T16:42:42.865Z,64.68
2018-06-09T16:45:11.099Z,64.94
2018-06-09T16:47:39.510Z,64.08
2018-06-09T16:50:07.782Z,63.33
2018-06-09T16:52:36.029Z,63.47
2018-06-09T16:55:05.316Z,63.86
2018-06-09T16:57:34.629Z,62.70
2018-06-09T17:00:03.100Z,64.34
2018-06-09T17:02:31.692Z,65.28
2018-06-09T17:04:59.851Z,65.64
2018-06-09T17:07:28.110Z,68.30
2018-06-09T17:09:56.434Z,69.06
2018-06-09T17:12:31.572Z,67.08
2018-06-09T17:14:59.732Z,68.05
2018-06-09T17:17:28.153Z,67.27
2018-06-09T17:19:56.453Z,68.41
2018-06-09T17:22:24.632Z,69.44
2018-06-09T17:24:52.841Z,68.77
2018-06-09T17:27:21.041Z,67.14
2018-06-09T17:29:49.371Z,69.15
2018-06-09T17:32:17.537Z,69.48
2018-06-09T17:35:13.486Z,69.78
2018-06-09T17:37:47.453Z,68.04
2018-06-09T17:40:24.209Z,66.48
2018-06-09T17:42:53.147Z,65.92
2018-06-09T17:45:37.242Z,65.62
2018-06-09T17:48:08.623Z,65.02
2018-06-09T17:50:45.401Z,66.04
2018-06-09T17:53:13.587Z,63.12
2018-06-09T17:55:41.919Z,61.13
2018-06-09T17:58:10.156Z,61.79
2018-06-09T18:00:39.000Z,62.11
2018-06-09T18:03:07.341Z,62.36
2018-06-09T18:05:35.708Z,61.93
2018-06-09T18:08:04.037Z,62.92
2018-06-09T18:10:32.385Z,61.72
2018-06-09T18:13:00.586Z,61.80
2018-06-09T18:15:28.787Z,60.66
2018-06-09T18:17:57.220Z,60.53
2018-06-09T18:20:25.436Z,60.33
2018-06-09T18:22:53.654Z,59.87
2018-06-09T18:25:21.902Z,61.26
2018-06-09T18:27:50.059Z,60.42
2018-06-09T18:30:18.288Z,58.85
2018-06-09T18:32:46.462Z,58.05
2018-06-09T18:35:15.039Z,59.72
2018-06-09T18:37:43.319Z,60.67
2018-06-09T18:40:11.469Z,60.85
2018-06-09T18:42:39.888Z,58.54
2018-06-09T18:45:15.149Z,56.64
2018-06-09T18:47:49.745Z,57.06
2018-06-09T18:50:21.161Z,56.44
2018-06-09T18:52:52.198Z,58.71
2018-06-09T18:55:25.742Z,58.54
2018-06-09T18:57:54.036Z,59.43
2018-06-09T19:00:23.062Z,61.38
2018-06-09T19:02:51.380Z,61.73
2018-06-09T19:05:20.374Z,62.15
2018-06-09T19:07:48.537Z,63.89
2018-06-09T19:10:16.822Z,63.05
2018-06-09T19:12:45.120Z,63.04
2018-06-09T19:15:13.326Z,62.84
2018-06-09T19:17:41.599Z,62.46
2018-06-09T19:20:09.874Z,63.48
2018-06-09T19:22:38.045Z,63.30
2018-06-09T19:25:06.259Z,62.08
2018-06-09T19:27:34.500Z,63.01
2018-06-09T19:30:02.724Z,63.52
2018-06-09T19:32:30.893Z,64.12
2018-06-09T19:34:59.132Z,64.71
2018-06-09T19:37:27.489Z,67.22
2018-06-09T19:39:55.750Z,69.31
2018-06-09T19:42:23.985Z,72.30
2018-06-09T19:44:52.220Z,76.33
2018-06-09T19:47:24.426Z,78.86
2018-06-09T19:49:52.636Z,81.42
2018-06-09T19:52:20.835Z,77.82
2018-06-09T19:54:49.516Z,78.16
2018-06-09T19:57:17.759Z,78.18
2018-06-09T19:59:46.209Z,78.59
2018-06-09T20:02:14.440Z,79.02
2018-06-09T20:04:42.806Z,76.91
2018-06-09T20:07:11.210Z,75.92
2018-06-09T20:09:39.465Z,75.79
2018-06-09T20:12:07.827Z,78.88
2018-06-09T20:14:36.144Z,77.81
2018-06-09T20:17:04.705Z,78.07
2018-06-09T20:19:32.899Z,79.69
2018-06-09T20:22:01.354Z,77.21
2018-06-09T20:24:29.882Z,77.68
2018-06-09T20:26:58.094Z,78.88
2018-06-09T20:29:26.529Z,78.92
2018-06-09T20:31:54.803Z,79.64
2018-06-09T20:34:23.113Z,80.91
2018-06-09T20:36:52.040Z,80.29
2018-06-09T20:39:20.899Z,82.51
2018-06-09T20:41:49.248Z,82.70
2018-06-09T20:44:17.534Z,81.91
2018-06-09T20:46:45.923Z,81.70
2018-06-09T20:49:14.886Z,82.41
2018-06-09T20:51:43.149Z,81.41
2018-06-09T20:54:11.269Z,81.71
2018-06-09T20:56:39.433Z,83.68
2018-06-09T20:59:07.734Z,83.98
2018-06-09T21:01:35.994Z,85.63
2018-06-09T21:04:04.305Z,84.66
2018-06-09T21:06:32.504Z,83.80
2018-06-09T21:09:00.644Z,85.14
2018-06-09T21:11:28.856Z,86.01
2018-06-09T21:13:56.961Z,86.72
2018-06-09T21:16:25.157Z,86.73
2018-06-09T21:18:53.686Z,86.72
2018-06-09T21:21:21.830Z,87.69
2018-06-09T21:23:50.237Z,89.62
2018-06-09T21:26:18.477Z,90.59
2018-06-09T21:28:52.652Z,87.66
2018-06-09T21:31:26.769Z,86.40
2018-06-09T21:34:12.195Z,87.28
2018-06-09T21:36:46.012Z,88.27
2018-06-09T21:39:19.531Z,86.54
2018-06-09T21:41:53.387Z,86.71
2018-06-09T21:44:27.304Z,87.22
2018-06-09T21:46:55.953Z,88.41
2018-06-09T21:49:24.270Z,88.94
2018-06-09T21:51:52.337Z,88.59
2018-06-09T21:54:20.616Z,89.38
2018-06-09T21:56:48.803Z,90.10
2018-06-09T21:59:17.177Z,90.65
2018-06-09T22:01:45.319Z,89.27
2018-06-09T22:04:13.590Z,89.91
2018-06-09T22:06:41.735Z,88.97
2018-06-09T22:09:10.015Z,88.97
2018-06-09T22:11:38.237Z,86.58
2018-06-09T22:14:06.425Z,86.78
2018-06-09T22:16:34.642Z,87.74
2018-06-09T22:19:02.786Z,87.50
2018-06-09T22:21:30.960Z,88.96
2018-06-09T22:23:59.707Z,90.13
2018-06-09T22:26:28.025Z,90.07
2018-06-09T22:28:56.156Z,91.16
2018-06-09T22:31:24.342Z,91.35
2018-06-09T22:33:52.458Z,91.49
2018-06-09T22:36:20.748Z,91.70
2018-06-09T22:38:49.008Z,90.65
2018-06-09T22:41:17.195Z,91.40
2018-06-09T22:43:45.358Z,91.19
2018-06-09T22:46:13.495Z,92.02
2018-06-09T22:48:41.622Z,91.89
2018-06-09T22:51:09.778Z,93.88
2018-06-09T22:53:38.010Z,94.25
2018-06-09T22:56:06.184Z,94.01
2018-06-09T22:58:34.403Z,95.15
2018-06-09T23:01:02.921Z,96.48
2018-06-09T23:03:31.274Z,96.93
2018-06-09T23:05:59.430Z,97.92
2018-06-09T23:08:27.697Z,97.61
2018-06-09T23:10:55.940Z,96.34
2018-06-09T23:13:24.136Z,96.18
2018-06-09T23:15:52.290Z,95.91
2018-06-09T23:18:20.447Z,98.40
2018-06-09T23:20:48.669Z,99.48
2018-06-09T23:23:16.781Z,99.74
2018-06-09T23:25:44.902Z,97.89
2018-06-09T23:28:13.082Z,99.49
2018-06-09T23:30:41.230Z,98.32
2018-06-09T23:33:09.284Z,97.38
2018-06-09T23:35:37.441Z,98.65
2018-06-09T23:38:05.889Z,98.45
2018-06-09T23:40:34.158Z,97.83
2018-06-09T23:43:02.494Z,98.59
2018-06-09T23:45:30.501Z,98.18
2018-06-09T23:47:58.621Z,99.01
2018-06-09T23:50:26.737Z,99.48
2018-06-09T23:52:54.876Z,98.75
2018-06-09T23:55:23.104Z,100.00
2018-06-09T23:57:51.489Z,98.82
